Terminal Aerodrome Forecast
Issued by NWS

Home | Current Version | Previous Version | Text Only | Print | Product List | Glossary On
Versions: 1 2 3 4 5 6 7 8 9 10 11 12 13 14 15 16 17 18 19 20 21 22 23 24 25 26
279
FTAK31 PANC 191138
TAFADL
TAF
PADL 191138Z 1912/2012 02005KT P6SM SCT100
     FM191700 01007KT P6SM BKN050
     FM192200 04009KT 2SM -SN BR SCT007 BKN012 OVC025 WS020/16040KT
     FM200400 17015KT 5SM -SHSN BR SCT012 BKN025
     FM200800 14008KT P6SM VCSH SCT030 BKN050=

USA.gov is the U.S. government's official web portal to all federal, state and local government web resources and services.